Time;durP1;ratioP1;P1;durP2;ratioP2;P2;SDS_P1;SDS_P2;PMS_P1;PMS_P2;Temp;Humidity;BMP_temperature;BMP_pressure;BME280_temperature;BME280_humidity;BME280_pressure;Samples;Min_cycle;Max_cycle;Signal;HPM_P1;HPM_P2
2022/06/16 00:01:24;;;;;;;3.33;2.45;;;20.80;91.70;;;21.44;59.91;101017.31;5127042;28;20092;-73
2022/06/16 00:03:56;;;;;;;2.47;2.10;;;20.80;91.90;;;21.43;59.98;101012.91;5127092;29;20055;-74
2022/06/16 00:06:28;;;;;;;2.70;2.20;;;20.80;92.00;;;21.43;60.05;101025.31;5127035;29;20509;-74
2022/06/16 00:09:00;;;;;;;3.75;2.17;;;20.80;92.10;;;21.40;60.30;101027.09;5127381;29;20480;-74
2022/06/16 00:11:33;;;;;;;3.65;2.30;;;20.80;92.30;;;21.35;60.02;101028.88;5127270;28;20543;-74
2022/06/16 00:14:07;;;;;;;4.53;2.33;;;20.80;92.20;;;21.34;59.87;101032.44;5126855;29;20137;-74
2022/06/16 00:16:39;;;;;;;2.72;2.13;;;20.70;92.20;;;21.33;59.77;101035.09;5126468;28;20094;-73
2022/06/16 00:19:11;;;;;;;2.95;2.40;;;20.70;92.20;;;21.33;59.32;101030.69;5126764;29;20051;-73
2022/06/16 00:21:43;;;;;;;3.92;2.20;;;20.70;91.90;;;21.32;58.83;101020.06;5126678;28;20082;-75
2022/06/16 00:24:15;;;;;;;3.03;2.08;;;20.70;91.70;;;21.31;58.79;101018.28;5126756;29;20082;-74
2022/06/16 00:26:47;;;;;;;2.40;2.13;;;20.70;91.70;;;21.28;59.06;101013.91;5126958;29;20083;-74
2022/06/16 00:29:21;;;;;;;3.63;2.20;;;20.70;91.90;;;21.26;59.20;101023.63;5126513;28;20142;-73
2022/06/16 00:31:53;;;;;;;3.00;2.10;;;20.70;92.00;;;21.21;59.68;101013.91;5126817;29;20078;-74
2022/06/16 00:34:25;;;;;;;3.22;2.42;;;20.70;92.30;;;21.16;60.29;101013.94;5126853;29;20478;-73
2022/06/16 00:36:57;;;;;;;3.17;2.13;;;20.60;92.60;;;21.09;60.23;101031.63;5126870;29;20079;-75
2022/06/16 00:39:30;;;;;;;3.47;2.25;;;20.60;92.70;;;21.04;60.39;101027.25;5126627;28;20381;-73
2022/06/16 00:42:09;;;;;;;3.60;2.20;;;20.50;92.90;;;20.97;61.09;101020.22;5126449;29;20134;-75
2022/06/16 00:44:45;;;;;;;3.47;2.25;;;20.40;93.20;;;20.93;61.38;101029.03;5126675;29;20552;-73
2022/06/16 00:47:20;;;;;;;3.53;2.30;;;20.40;93.50;;;20.86;61.66;101029.09;5126576;29;20453;-75
2022/06/16 00:49:55;;;;;;;3.28;2.42;;;20.30;93.70;;;20.84;61.69;101036.16;5126477;28;20047;-73
2022/06/16 00:52:31;;;;;;;3.75;2.22;;;20.30;93.70;;;20.82;61.22;101037.94;5126188;29;20078;-72
2022/06/16 00:55:10;;;;;;;4.10;2.40;;;20.30;93.60;;;20.82;60.52;101043.22;5126494;29;20055;-75
2022/06/16 00:57:47;;;;;;;2.83;2.20;;;20.30;93.10;;;20.83;60.28;101042.34;5126516;29;20449;-73
2022/06/16 01:00:23;;;;;;;2.97;2.15;;;20.30;93.10;;;20.82;59.77;101037.06;5126093;28;20054;-74
2022/06/16 01:02:56;;;;;;;3.90;2.10;;;20.20;93.00;;;20.79;59.58;101048.53;5126291;29;20054;-74
2022/06/16 01:05:27;;;;;;;3.58;2.38;;;20.20;92.80;;;20.80;58.94;101045.00;5126317;29;20055;-74
2022/06/16 01:08:00;;;;;;;2.50;1.90;;;20.20;92.40;;;20.79;58.30;101061.78;5126147;29;20051;-74
2022/06/16 01:10:40;;;;;;;4.65;2.10;;;20.20;92.10;;;20.79;58.15;101052.94;5125852;28;20168;-73
2022/06/16 01:13:41;;;;;;;2.47;1.85;;;20.20;92.00;;;20.78;57.70;101059.13;5126109;29;20126;-74
2022/06/16 01:16:26;;;;;;;3.50;1.90;;;20.20;91.70;;;20.78;57.06;101054.72;5125896;29;20051;-73
2022/06/16 01:19:09;;;;;;;7.85;2.10;;;20.20;91.30;;;20.78;56.64;101054.72;5125723;29;20087;-72
2022/06/16 01:21:46;;;;;;;3.50;2.17;;;20.20;91.10;;;20.77;56.37;101060.91;5125579;28;20484;-73
2022/06/16 01:24:59;;;;;;;4.85;2.30;;;20.20;90.80;;;20.75;56.12;101067.97;5125872;29;20086;-73
2022/06/16 01:28:16;;;;;;;2.85;2.20;;;20.20;90.70;;;20.76;55.72;101072.38;5125725;28;20407;-75
2022/06/16 01:30:58;;;;;;;2.75;1.80;;;20.20;90.40;;;20.75;55.45;101067.97;5125438;28;20058;-73
2022/06/16 01:33:41;;;;;;;3.08;1.88;;;20.20;90.20;;;20.75;55.34;101078.56;5125605;29;20054;-73
2022/06/16 01:36:22;;;;;;;3.63;2.00;;;20.20;90.10;;;20.74;55.42;101071.53;5125768;29;20082;-72
2022/06/16 01:39:05;;;;;;;2.40;1.75;;;20.20;90.00;;;20.74;55.35;101076.81;5125304;29;20055;-72
2022/06/16 01:41:43;;;;;;;2.30;1.60;;;20.20;90.00;;;20.72;55.48;101083.88;5125659;28;20507;-73
2022/06/16 01:44:23;;;;;;;2.95;1.83;;;20.20;90.00;;;20.70;55.59;101076.81;5125161;29;20079;-74
2022/06/16 01:47:02;;;;;;;1.70;1.50;;;20.20;90.10;;;20.68;55.54;101073.31;5125322;29;20098;-74
2022/06/16 01:49:39;;;;;;;4.47;1.90;;;20.20;90.00;;;20.65;55.46;101081.25;5125376;28;20051;-73
2022/06/16 01:52:18;;;;;;;2.92;1.70;;;20.20;90.00;;;20.63;55.55;101073.31;5125656;29;20074;-73
2022/06/16 01:54:56;;;;;;;4.43;1.60;;;20.10;90.00;;;20.59;55.85;101077.72;5125579;29;20465;-73
2022/06/16 01:57:35;;;;;;;3.58;1.80;;;20.10;90.10;;;20.57;56.00;101078.63;5125524;29;20054;-73
2022/06/16 02:00:11;;;;;;;2.40;1.83;;;20.10;90.20;;;20.55;56.07;101086.56;5125231;28;20399;-74
2022/06/16 02:02:46;;;;;;;2.00;1.80;;;20.00;90.20;;;20.53;56.01;101082.13;5125466;29;20511;-74
2022/06/16 02:05:25;;;;;;;3.03;1.60;;;20.00;90.20;;;20.50;56.12;101087.44;5125283;29;20055;-74
2022/06/16 02:08:03;;;;;;;3.30;1.70;;;20.00;90.20;;;20.48;56.20;101095.41;5125158;29;20094;-74
2022/06/16 02:10:40;;;;;;;3.67;2.03;;;20.00;90.30;;;20.45;56.13;101097.16;5124891;28;20063;-74
2022/06/16 02:13:17;;;;;;;3.42;1.70;;;19.90;90.30;;;20.43;56.30;101097.13;5125239;29;20078;-73
2022/06/16 02:15:55;;;;;;;1.70;1.60;;;19.90;90.30;;;20.39;56.40;101083.88;5125324;29;20141;-73
2022/06/16 02:18:33;;;;;;;2.97;1.92;;;19.90;90.40;;;20.35;56.67;101082.16;5124929;29;20086;-75
2022/06/16 02:21:14;;;;;;;2.33;1.70;;;19.80;90.50;;;20.31;56.97;101095.38;5124848;28;20067;-72
2022/06/16 02:23:46;;;;;;;3.28;2.10;;;19.90;90.60;;;20.29;56.82;101089.22;5125198;29;20051;-73
2022/06/16 02:26:19;;;;;;;3.88;1.80;;;19.80;90.70;;;20.27;56.97;101090.06;5125251;29;20133;-73
2022/06/16 02:28:54;;;;;;;2.80;1.67;;;19.80;90.70;;;20.26;57.11;101094.47;5125022;29;20134;-73
2022/06/16 02:31:40;;;;;;;3.60;2.08;;;19.80;90.80;;;20.24;57.36;101104.19;5124789;28;20130;-75
2022/06/16 02:34:24;;;;;;;3.88;2.08;;;19.80;90.90;;;20.19;57.40;101108.59;5125068;29;20489;-73
2022/06/16 02:37:20;;;;;;;3.13;2.10;;;19.70;90.90;;;20.15;57.59;101114.78;5125113;29;20527;-75
2022/06/16 02:40:17;;;;;;;2.88;1.80;;;19.70;91.10;;;20.11;57.81;101113.00;5127708;28;20086;-72
2022/06/16 02:43:03;;;;;;;2.72;1.92;;;19.60;91.10;;;20.05;58.13;101119.19;5128971;29;20058;-73
2022/06/16 02:45:42;;;;;;;2.88;2.00;;;19.60;91.30;;;20.02;58.29;101108.59;5128679;29;20134;-75
2022/06/16 02:48:22;;;;;;;2.58;1.90;;;19.50;91.40;;;20.00;58.37;101109.47;5128802;29;20499;-73
2022/06/16 02:51:05;;;;;;;2.63;2.00;;;19.50;91.60;;;19.99;58.56;101110.34;5128821;28;20432;-73
2022/06/16 02:53:45;;;;;;;3.42;2.15;;;19.50;91.70;;;19.96;58.81;101111.25;5128712;29;20053;-75
2022/06/16 02:56:26;;;;;;;3.00;2.10;;;19.50;91.80;;;19.92;58.97;101106.81;5128757;29;20492;-75
2022/06/16 02:59:05;;;;;;;2.58;1.88;;;19.40;91.90;;;19.87;59.08;101105.03;5128521;29;20051;-72
2022/06/16 03:01:37;;;;;;;3.13;1.88;;;19.40;92.00;;;19.83;59.19;101098.88;5128480;28;20048;-73
2022/06/16 03:04:13;;;;;;;4.10;2.35;;;19.40;92.20;;;19.82;59.35;101106.78;5128606;29;20503;-72
2022/06/16 03:06:47;;;;;;;2.28;1.52;;;19.30;92.30;;;19.79;59.69;101102.38;5128515;29;20051;-72
2022/06/16 03:09:19;;;;;;;2.72;1.98;;;19.30;92.40;;;19.75;59.56;101122.63;5128397;29;20051;-73
2022/06/16 03:11:51;;;;;;;3.22;2.00;;;19.30;92.40;;;19.72;59.50;101127.94;5128417;29;20054;-72
2022/06/16 03:14:23;;;;;;;3.35;1.90;;;19.20;92.40;;;19.65;59.58;101120.88;5128350;29;20055;-72
2022/06/16 03:16:56;;;;;;;2.83;1.92;;;19.20;92.50;;;19.60;59.77;101121.72;5128410;29;20485;-74
2022/06/16 03:19:28;;;;;;;3.22;2.10;;;19.10;92.50;;;19.53;60.13;101123.44;5127728;28;20051;-72
2022/06/16 03:22:02;;;;;;;2.78;1.83;;;19.10;92.60;;;19.49;60.15;101129.59;5172198;23;20054;-69
2022/06/16 03:24:34;;;;;;;3.15;2.00;;;19.10;92.80;;;19.48;60.19;101122.53;5105545;29;20150;-68
2022/06/16 03:27:08;;;;;;;3.92;1.80;;;19.00;92.80;;;19.44;60.39;101131.34;5107451;29;20135;-68
2022/06/16 03:29:40;;;;;;;3.08;1.88;;;19.00;92.90;;;19.42;60.46;101130.44;5107799;29;20055;-67
2022/06/16 03:32:12;;;;;;;3.58;1.80;;;18.90;93.00;;;19.37;60.63;101135.72;5107754;29;20500;-68
2022/06/16 03:34:44;;;;;;;3.28;1.90;;;18.90;93.10;;;19.35;60.64;101136.59;5107464;29;20051;-68
2022/06/16 03:37:17;;;;;;;3.28;2.20;;;18.90;93.20;;;19.34;60.83;101132.19;5107412;29;20052;-68
2022/06/16 03:39:50;;;;;;;3.00;1.98;;;18.90;93.30;;;19.34;60.89;101142.75;5107109;29;20142;-67
2022/06/16 03:42:22;;;;;;;3.00;1.85;;;18.80;93.40;;;19.33;61.02;101148.91;5107932;29;20051;-68
2022/06/16 03:44:54;;;;;;;3.40;1.95;;;18.80;93.50;;;19.33;61.09;101149.81;5107425;29;20054;-67
2022/06/16 03:47:26;;;;;;;4.20;2.20;;;18.80;93.80;;;19.32;61.02;101155.09;5107615;29;20054;-68
2022/06/16 03:49:58;;;;;;;2.53;1.92;;;18.80;93.50;;;19.30;60.90;101165.66;5105889;29;20055;-67
2022/06/16 03:52:31;;;;;;;2.30;1.73;;;18.90;93.50;;;19.30;60.82;101167.38;5107398;29;20051;-67
2022/06/16 03:55:04;;;;;;;3.22;1.70;;;18.80;93.40;;;19.28;60.77;101171.78;5107558;29;20404;-68
2022/06/16 03:57:36;;;;;;;3.70;1.80;;;18.90;93.40;;;19.27;60.46;101170.03;5107347;29;20048;-68
2022/06/16 04:00:10;;;;;;;5.30;1.90;;;18.80;93.30;;;19.26;60.45;101179.72;5107038;29;20588;-68
2022/06/16 04:02:42;;;;;;;3.08;2.00;;;18.80;93.20;;;19.24;60.23;101177.06;5107092;29;20056;-68
2022/06/16 04:05:14;;;;;;;2.13;1.70;;;18.80;93.20;;;19.22;60.34;101183.22;5107141;29;20138;-68
2022/06/16 04:07:48;;;;;;;2.13;1.83;;;18.80;93.20;;;19.19;60.39;101181.44;5107234;29;20143;-68
2022/06/16 04:10:20;;;;;;;2.63;1.70;;;18.70;93.10;;;19.17;60.23;101196.41;5106820;29;20051;-69
2022/06/16 04:12:52;;;;;;;4.97;2.03;;;18.70;93.20;;;19.12;60.36;101197.25;5106854;29;20473;-69
2022/06/16 04:15:24;;;;;;;2.42;1.90;;;18.70;93.10;;;19.09;60.48;101187.53;5106862;29;20051;-69
2022/06/16 04:17:56;;;;;;;4.13;2.15;;;18.70;93.10;;;19.08;60.46;101191.06;5106770;29;20067;-68
2022/06/16 04:20:29;;;;;;;2.83;1.77;;;18.70;93.10;;;19.07;60.39;101186.66;5106881;29;20131;-67
2022/06/16 04:23:02;;;;;;;3.70;2.35;;;18.70;93.10;;;19.06;60.38;101189.28;5106824;29;20062;-69
2022/06/16 04:25:34;;;;;;;3.78;2.13;;;18.70;93.10;;;19.04;60.41;101194.56;5106692;29;20489;-68
2022/06/16 04:28:09;;;;;;;2.92;2.00;;;18.70;93.20;;;19.03;60.21;101192.78;5107015;29;20051;-67
2022/06/16 04:30:41;;;;;;;3.03;2.15;;;18.60;93.10;;;19.02;60.13;101191.03;5106639;29;20079;-68
2022/06/16 04:33:13;;;;;;;3.85;1.92;;;18.60;93.00;;;19.00;60.18;101191.91;5106826;29;20413;-67
2022/06/16 04:35:45;;;;;;;2.38;1.92;;;18.60;93.00;;;19.00;60.01;101195.41;5106420;29;20060;-68
2022/06/16 04:38:18;;;;;;;4.10;2.05;;;18.60;93.10;;;19.00;60.15;101200.72;5106480;29;20127;-68
2022/06/16 04:40:50;;;;;;;3.40;1.80;;;18.60;93.10;;;19.00;60.04;101208.63;5106684;29;20058;-68
2022/06/16 04:43:23;;;;;;;3.80;2.08;;;18.60;93.10;;;19.02;60.03;101212.16;5106672;29;20390;-68
2022/06/16 04:45:56;;;;;;;3.80;1.83;;;18.60;93.10;;;19.00;60.18;101213.03;5106429;29;20059;-67
2022/06/16 04:48:28;;;;;;;3.88;2.50;;;18.60;93.10;;;19.01;60.27;101218.31;5106133;29;20059;-67
2022/06/16 04:51:02;;;;;;;3.75;2.30;;;18.70;93.10;;;19.11;60.48;101222.81;5106398;29;20051;-67
2022/06/16 04:53:35;;;;;;;5.70;2.42;;;18.70;93.20;;;19.32;60.37;101224.69;5106466;29;20051;-69
2022/06/16 04:56:08;;;;;;;3.47;2.20;;;18.90;93.30;;;19.53;59.67;101243.31;5106245;29;20052;-67
2022/06/16 04:58:42;;;;;;;6.35;2.30;;;19.10;93.00;;;19.72;59.00;101246.97;5106045;29;20506;-67
2022/06/16 05:01:14;;;;;;;5.45;2.40;;;19.20;92.70;;;19.91;58.20;101254.97;5106096;29;20052;-67
2022/06/16 05:03:46;;;;;;;5.15;2.33;;;19.40;92.40;;;20.03;57.54;101241.78;5106121;29;20329;-67
2022/06/16 05:06:18;;;;;;;3.67;2.10;;;19.50;91.90;;;20.19;57.00;101245.34;5106155;29;20098;-67
2022/06/16 05:08:52;;;;;;;3.97;2.10;;;19.60;91.60;;;20.28;56.40;101246.28;5106053;29;20087;-69
2022/06/16 05:11:24;;;;;;;4.47;2.80;;;19.80;91.30;;;20.40;55.80;101244.50;5105743;29;20047;-67
2022/06/16 05:13:59;;;;;;;3.05;2.10;;;19.90;90.90;;;20.49;55.13;101249.88;5105989;29;20048;-68
2022/06/16 05:16:32;;;;;;;4.63;2.50;;;19.90;90.60;;;20.66;54.30;101242.81;5106310;29;20481;-67
2022/06/16 05:19:04;;;;;;;4.65;2.28;;;20.10;90.10;;;20.71;53.80;101235.75;5105799;29;20051;-67
2022/06/16 05:21:36;;;;;;;5.30;2.45;;;20.20;89.50;;;20.82;53.19;101249.88;5105521;29;20135;-66
2022/06/16 05:24:09;;;;;;;4.85;2.50;;;20.20;88.60;;;20.98;52.74;101255.16;5106110;29;20070;-67
2022/06/16 05:26:41;;;;;;;5.75;2.50;;;20.40;88.10;;;21.19;52.22;101268.44;5105892;29;20051;-68
2022/06/16 05:29:14;;;;;;;4.43;2.35;;;20.50;87.40;;;21.38;51.55;101266.63;5105416;29;20412;-68
2022/06/16 05:31:46;;;;;;;5.40;2.30;;;20.70;87.40;;;21.48;51.30;101273.69;5102778;29;20131;-68
2022/06/16 05:34:18;;;;;;;6.32;2.70;;;20.80;86.80;;;21.48;50.76;101280.78;5105322;29;20063;-68
2022/06/16 05:36:50;;;;;;;4.95;2.40;;;20.80;85.20;;;21.42;50.47;101289.63;5105494;29;20140;-67
2022/06/16 05:39:24;;;;;;;4.57;2.28;;;20.80;84.40;;;21.60;50.62;101286.03;5102472;29;20478;-67
2022/06/16 05:41:56;;;;;;;4.50;2.22;;;20.90;84.70;;;21.73;50.11;101289.56;5099214;29;20056;-67
2022/06/16 05:44:28;;;;;;;4.50;2.45;;;21.10;84.10;;;21.72;49.65;101291.31;5093650;29;20044;-69
2022/06/16 05:47:00;;;;;;;2.55;1.90;;;21.10;83.10;;;21.72;49.44;101298.41;5085599;29;20052;-69
2022/06/16 05:49:33;;;;;;;4.15;2.38;;;21.10;82.50;;;21.80;49.31;101308.09;5085552;29;20055;-67
2022/06/16 05:52:09;;;;;;;4.82;2.40;;;21.20;82.30;;;21.94;48.84;101302.72;5086059;29;20103;-67
2022/06/16 05:54:43;;;;;;;4.03;2.17;;;21.30;81.70;;;22.03;48.94;101309.75;5085466;29;20044;-67
2022/06/16 05:57:15;;;;;;;4.68;2.30;;;21.40;81.70;;;22.25;48.43;101311.47;5088583;29;20086;-69
2022/06/16 05:59:47;;;;;;;3.47;1.70;;;21.50;81.20;;;22.45;47.63;101312.25;5089867;29;20413;-67
2022/06/16 06:02:21;;;;;;;5.75;2.22;;;21.70;80.10;;;22.63;47.19;101307.72;5095773;29;20051;-68
2022/06/16 06:04:53;;;;;;;3.30;1.92;;;21.90;79.60;;;22.74;47.56;101312.03;5094512;29;20062;-71
2022/06/16 06:07:25;;;;;;;2.97;1.95;;;22.00;79.50;;;22.92;48.04;101312.84;5094845;29;20058;-71
2022/06/16 06:18:36;;;;;;;3.95;2.00;;;22.30;76.70;;;23.11;45.58;101333.06;5094049;29;20143;-71
2022/06/16 06:21:08;;;;;;;4.38;2.20;;;22.40;76.00;;;23.25;44.96;101324.97;5091227;29;20146;-72
2022/06/16 06:23:40;;;;;;;2.75;1.98;;;22.50;75.50;;;23.31;44.61;101340.88;5088426;29;20052;-71
2022/06/16 06:26:14;;;;;;;6.60;2.08;;;22.60;75.10;;;23.46;45.16;101343.38;5085245;29;20052;-73
2022/06/16 06:28:46;;;;;;;4.97;2.13;;;22.70;75.50;;;23.59;45.24;101345.94;5100907;29;20055;-70
2022/06/16 06:31:18;;;;;;;3.75;1.88;;;22.80;75.60;;;23.66;44.91;101337.00;5097676;29;20413;-70
2022/06/16 06:33:50;;;;;;;4.50;1.80;;;22.90;75.10;;;23.66;44.71;101337.00;5095611;29;20055;-69
2022/06/16 06:36:22;;;;;;;2.75;1.80;;;22.90;74.70;;;23.67;44.78;101336.13;5095952;29;20054;-70
2022/06/16 06:38:54;;;;;;;4.22;2.40;;;22.90;74.40;;;23.67;44.70;101344.09;5101682;29;20553;-71
2022/06/16 06:41:28;;;;;;;3.25;1.75;;;22.90;74.20;;;23.55;44.56;101339.78;5092084;29;20044;-71
2022/06/16 06:44:00;;;;;;;4.43;1.85;;;22.80;73.80;;;23.54;44.61;101338.91;5091631;29;20078;-71
2022/06/16 06:46:32;;;;;;;3.08;1.88;;;22.90;74.10;;;23.59;44.75;101341.50;5085086;29;20147;-71
2022/06/16 06:49:05;;;;;;;3.60;1.92;;;22.80;74.00;;;23.54;44.25;101349.53;5093208;29;20139;-70
2022/06/16 06:51:38;;;;;;;2.88;1.80;;;22.80;73.50;;;23.58;44.62;101350.38;5084998;29;20140;-70
2022/06/16 06:54:10;;;;;;;3.10;1.90;;;22.80;73.80;;;23.72;44.58;101352.91;5085175;29;20143;-70
2022/06/16 06:56:43;;;;;;;2.10;1.60;;;22.90;74.10;;;23.87;44.67;101360.75;5085294;29;20056;-71
2022/06/16 06:59:19;;;;;;;2.83;1.92;;;23.00;74.10;;;24.03;44.25;101365.00;5085059;29;20058;-71
2022/06/16 07:01:52;;;;;;;2.67;1.80;;;23.20;73.70;;;24.15;43.43;101363.09;5084897;29;20498;-71
2022/06/16 07:04:24;;;;;;;3.75;1.73;;;23.30;73.30;;;24.24;43.44;101363.84;5085099;29;20058;-70
2022/06/16 07:06:56;;;;;;;2.75;1.88;;;23.40;72.30;;;24.34;43.25;101375.31;5084876;29;20060;-71
2022/06/16 07:09:28;;;;;;;2.72;1.50;;;23.40;72.30;;;24.48;43.27;101378.69;5084706;29;20139;-72
2022/06/16 07:12:02;;;;;;;3.65;1.63;;;23.60;72.60;;;24.58;42.98;101384.75;5087109;29;20535;-71
2022/06/16 07:14:34;;;;;;;3.25;1.77;;;23.60;71.80;;;24.70;42.99;101378.38;5093278;29;20048;-69
2022/06/16 07:17:06;;;;;;;3.63;1.80;;;23.70;71.60;;;24.83;42.36;101377.28;5096434;29;20417;-71
2022/06/16 07:19:38;;;;;;;3.80;2.10;;;23.90;71.30;;;24.94;42.47;101380.69;5090496;29;20116;-71
2022/06/16 07:22:10;;;;;;;2.95;1.70;;;24.00;70.90;;;24.97;42.07;101383.28;5098163;29;20225;-71
2022/06/16 07:24:42;;;;;;;1.75;1.60;;;24.00;70.40;;;25.09;42.04;101392.94;5105604;29;20051;-71
2022/06/16 07:27:16;;;;;;;2.53;1.73;;;24.10;70.50;;;25.00;41.07;101385.94;5108214;29;20063;-71
2022/06/16 07:29:49;;;;;;;4.45;1.70;;;24.10;68.70;;;24.98;41.02;101386.88;5107718;29;20051;-72
2022/06/16 07:32:22;;;;;;;4.28;1.83;;;24.00;68.70;;;25.11;41.64;101385.81;5108369;29;20055;-71
2022/06/16 07:34:54;;;;;;;5.03;1.95;;;24.10;69.20;;;25.28;41.37;101388.19;5107680;29;20052;-71
2022/06/16 07:37:26;;;;;;;4.05;1.75;;;24.30;69.20;;;25.40;40.94;101387.97;5107731;29;20054;-71
2022/06/16 07:39:58;;;;;;;2.30;1.50;;;24.40;68.60;;;25.56;40.35;101381.47;5105260;29;20062;-70
2022/06/16 07:42:31;;;;;;;3.58;1.80;;;24.50;68.30;;;25.76;40.69;101382.94;5107821;29;20503;-70
2022/06/16 07:45:05;;;;;;;3.22;1.90;;;24.70;68.30;;;25.90;40.50;101388.91;5108055;29;20472;-71
2022/06/16 07:47:37;;;;;;;2.95;1.65;;;24.80;68.10;;;26.00;39.87;101393.13;5107896;29;20396;-69
2022/06/16 07:50:12;;;;;;;3.63;1.75;;;24.90;67.50;;;26.19;39.59;101402.53;5107484;29;20557;-70
2022/06/16 07:52:44;;;;;;;3.05;1.77;;;25.00;67.10;;;26.25;38.81;101405.09;5107809;29;20058;-70
2022/06/16 07:55:17;;;;;;;3.45;1.85;;;25.10;66.10;;;26.28;38.55;101400.56;5107551;29;20055;-70
2022/06/16 07:57:52;;;;;;;2.40;1.75;;;25.10;65.50;;;26.48;38.70;101403.78;5107472;29;20059;-70
2022/06/16 08:00:27;;;;;;;3.13;1.50;;;25.20;65.70;;;26.81;38.54;101409.28;5107239;29;20489;-70
2022/06/16 08:02:59;;;;;;;3.10;1.77;;;25.50;66.00;;;26.99;37.67;101409.72;5107083;29;20147;-71
2022/06/16 08:05:32;;;;;;;3.10;1.67;;;25.60;64.80;;;27.23;37.44;101404.75;5107323;29;20405;-71
2022/06/16 08:08:05;;;;;;;2.75;1.70;;;25.80;64.50;;;27.57;36.85;101412.78;5107160;29;20058;-70
2022/06/16 08:10:37;;;;;;;5.00;1.88;;;26.00;64.10;;;27.74;36.11;101407.03;5106772;29;20060;-70
2022/06/16 08:13:11;;;;;;;2.25;1.50;;;26.10;63.00;;;28.17;35.32;101406.75;5107536;29;20061;-70
2022/06/16 08:15:45;;;;;;;2.67;1.60;;;26.30;62.70;;;28.68;34.68;101414.19;5106804;29;20130;-70
2022/06/16 08:18:20;;;;;;;2.95;1.33;;;26.60;62.40;;;29.31;34.23;101407.72;5106944;29;20071;-70
2022/06/16 08:20:54;;;;;;;1.83;1.40;;;26.90;61.80;;;30.09;33.02;101406.81;5106454;29;20055;-71
2022/06/16 08:23:28;;;;;;;3.75;1.55;;;27.30;61.30;;;30.76;31.77;101407.00;5107234;29;20044;-71
2022/06/16 08:26:00;;;;;;;2.83;1.60;;;27.70;60.30;;;31.34;31.17;101415.41;5106828;29;20134;-71
2022/06/16 08:28:34;;;;;;;2.92;1.63;;;28.10;59.40;;;32.10;29.95;101414.81;5106424;29;20140;-71
2022/06/16 08:31:07;;;;;;;4.10;1.60;;;28.50;58.80;;;32.99;28.84;101417.88;5106906;29;20074;-71
2022/06/16 08:33:39;;;;;;;3.13;1.20;;;28.90;58.00;;;33.76;26.92;101421.19;5106663;29;20134;-71
2022/06/16 08:36:11;;;;;;;3.17;1.35;;;29.40;56.10;;;34.50;26.44;101418.19;5106404;29;20052;-71
2022/06/16 08:38:43;;;;;;;2.88;1.58;;;29.80;55.40;;;35.69;25.05;101429.38;5106581;29;20532;-72
2022/06/16 08:41:24;;;;;;;1.83;1.40;;;30.60;54.30;;;36.87;23.53;101440.06;5106766;29;20102;-71
2022/06/16 08:44:09;;;;;;;2.33;1.40;;;31.50;52.50;;;37.72;22.24;101432.53;5106916;29;20059;-71
2022/06/16 08:46:46;;;;;;;2.75;1.40;;;32.60;50.90;;;37.99;21.54;101435.22;5106725;29;20469;-72
2022/06/16 08:49:29;;;;;;;2.40;1.27;;;33.10;49.20;;;38.65;20.94;101444.09;5106272;29;20062;-71
2022/06/16 08:52:16;;;;;;;3.38;1.30;;;33.80;48.10;;;39.00;21.06;101434.25;5106402;29;20247;-73
2022/06/16 08:55:02;;;;;;;3.30;1.65;;;34.30;48.00;;;39.13;20.27;101438.78;5106375;29;20102;-71
2022/06/16 08:57:49;;;;;;;2.00;1.45;;;34.50;46.90;;;39.26;20.38;101445.94;5106377;29;20134;-71
2022/06/16 09:00:31;;;;;;;2.75;1.20;;;34.70;46.50;;;39.39;19.77;101448.59;5105696;29;20051;-72
2022/06/16 09:03:10;;;;;;;1.50;1.15;;;34.90;45.70;;;39.33;19.59;101441.75;5106495;29;20048;-71
2022/06/16 09:05:52;;;;;;;2.28;1.02;;;34.90;45.10;;;39.45;19.49;101445.41;5106471;29;20055;-72
2022/06/16 09:08:42;;;;;;;3.67;1.35;;;35.00;44.80;;;39.71;19.25;101439.78;5105979;29;20393;-72
2022/06/16 09:11:25;;;;;;;2.25;1.20;;;35.10;44.50;;;39.87;18.96;101441.22;5106108;29;20090;-72
2022/06/16 09:17:29;;;;;;;2.55;1.13;;;35.20;44.20;;;38.64;19.01;101456.00;5104776;29;20548;-71
2022/06/16 09:20:10;;;;;;;3.67;1.60;;;34.70;43.30;;;38.10;19.68;101454.38;5105437;29;20058;-72
2022/06/16 09:23:01;;;;;;;2.40;1.27;;;34.20;43.80;;;38.06;20.04;101457.41;5145430;23;20054;-87
2022/06/16 09:25:53;;;;;;;3.28;1.50;;;34.10;44.50;;;37.68;20.70;101469.09;5119639;29;20085;-87
2022/06/16 09:28:31;;;;;;;1.98;1.30;;;34.00;44.70;;;36.54;21.28;101480.22;5106231;29;20044;-88
2022/06/16 09:31:14;;;;;;;2.03;1.20;;;33.30;44.60;;;35.75;22.43;101469.69;5107176;29;20445;-86
2022/06/16 09:33:56;;;;;;;3.40;1.50;;;33.00;45.30;;;34.75;22.87;101478.09;5106764;29;20051;-87
2022/06/16 09:36:33;;;;;;;3.15;1.63;;;32.60;45.20;;;33.91;23.82;101470.94;5106708;29;20055;-87
2022/06/16 09:39:12;;;;;;;4.53;1.58;;;32.10;45.70;;;33.00;24.60;101481.78;5106848;29;20525;-87
2022/06/16 09:44:50;;;;;;;1.48;1.30;;;30.90;46.50;;;31.12;26.84;101479.16;5107008;29;20051;-87
2022/06/16 09:47:29;;;;;;;3.67;1.55;;;30.30;47.50;;;30.56;27.74;101483.06;5106612;29;20154;-87
2022/06/16 09:50:13;;;;;;;2.67;1.38;;;29.70;48.30;;;30.23;28.51;101486.06;5106839;29;20063;-88
2022/06/16 09:52:53;;;;;;;4.60;1.60;;;29.40;49.00;;;29.96;29.21;101490.59;5106292;29;20054;-87
2022/06/16 09:55:35;;;;;;;4.65;1.70;;;29.20;49.60;;;29.77;29.71;101502.03;5106614;29;20047;-87
2022/06/16 09:58:24;;;;;;;2.80;1.70;;;29.00;50.00;;;29.60;30.00;101495.38;5106452;29;20058;-88
2022/06/16 10:00:57;;;;;;;4.20;1.42;;;28.80;50.60;;;29.47;29.99;101499.38;5106906;29;20058;-87
2022/06/16 10:03:35;;;;;;;2.67;1.52;;;28.60;50.70;;;29.46;30.11;101511.94;5106207;29;20058;-86
2022/06/16 10:06:23;;;;;;;2.78;2.00;;;28.50;51.50;;;29.39;30.67;101513.06;5106798;29;20047;-89
2022/06/16 10:09:07;;;;;;;2.65;1.58;;;28.50;51.10;;;29.26;30.51;101509.00;5106562;29;20056;-87
2022/06/16 10:11:53;;;;;;;3.00;1.70;;;28.40;51.20;;;29.17;30.18;101514.69;5106785;29;20063;-86
2022/06/16 10:14:35;;;;;;;2.40;1.65;;;28.30;50.80;;;29.14;30.10;101515.63;5107052;29;20111;-86
2022/06/16 10:17:10;;;;;;;1.38;1.27;;;28.30;50.50;;;29.14;29.41;101520.13;5106835;29;20052;-87
2022/06/16 10:19:46;;;;;;;1.73;1.35;;;28.30;50.00;;;29.22;29.21;101526.16;5106156;29;20048;-87
2022/06/16 10:22:23;;;;;;;1.35;1.20;;;28.30;49.70;;;29.27;28.92;101532.25;5106407;29;20051;-86
2022/06/16 10:25:04;;;;;;;3.30;1.50;;;28.30;49.40;;;29.17;29.33;101537.03;5106526;29;20058;-87
2022/06/16 10:27:44;;;;;;;2.03;1.38;;;28.30;49.60;;;29.02;29.57;101528.59;5106159;29;20428;-86
2022/06/16 10:30:23;;;;;;;1.45;1.30;;;28.20;50.00;;;28.92;28.95;101536.91;5106219;29;20060;-87
2022/06/16 10:33:10;;;;;;;3.95;1.50;;;28.10;49.30;;;28.92;28.37;101525.28;5106176;29;20044;-87
2022/06/16 10:35:52;;;;;;;1.83;1.10;;;28.10;48.70;;;28.95;28.56;101530.53;5106353;29;20054;-87
2022/06/16 10:38:34;;;;;;;1.55;1.38;;;28.10;48.90;;;29.04;29.19;101540.16;5105741;29;20058;-89
2022/06/16 10:41:22;;;;;;;2.13;1.13;;;28.10;49.50;;;28.97;28.26;101541.25;5106203;29;20048;-87
2022/06/16 10:43:55;;;;;;;2.70;1.20;;;28.10;48.70;;;29.03;28.32;101549.13;5106551;29;20062;-86
2022/06/16 10:46:31;;;;;;;2.60;1.20;;;28.10;48.90;;;29.01;28.38;101545.59;5110245;29;20437;-83
2022/06/16 10:49:08;;;;;;;1.40;0.95;;;28.10;48.60;;;29.07;28.51;101548.09;5115178;29;20050;-85
2022/06/16 10:51:53;;;;;;;1.60;0.98;;;28.10;48.70;;;29.03;26.86;101554.50;5118860;29;20475;-84
2022/06/16 10:54:32;;;;;;;1.95;1.15;;;28.10;47.00;;;28.97;27.68;101538.56;5109872;29;20043;-84
2022/06/16 10:57:16;;;;;;;1.45;0.93;;;28.00;47.60;;;28.98;27.71;101534.97;5109884;29;20055;-84
2022/06/16 10:59:53;;;;;;;1.83;1.20;;;28.00;47.90;;;29.03;27.38;101535.72;5110992;29;20058;-84
2022/06/16 11:02:28;;;;;;;3.17;1.45;;;28.10;47.80;;;29.09;28.36;101533.72;5113219;29;20056;-85
2022/06/16 11:05:04;;;;;;;2.40;1.42;;;28.10;48.70;;;29.27;27.99;101531.38;5112378;29;20503;-85